createdAt,value
2018-03-26T00:00:23.417Z,67.90
2018-03-26T00:02:52.472Z,67.80
2018-03-26T00:05:21.497Z,67.50
2018-03-26T00:07:50.522Z,67.60
2018-03-26T00:10:19.566Z,68.00
2018-03-26T00:12:49.360Z,68.70
2018-03-26T00:15:18.410Z,68.50
2018-03-26T00:17:47.458Z,68.10
2018-03-26T00:20:16.476Z,68.10
2018-03-26T00:22:45.545Z,68.80
2018-03-26T00:25:14.570Z,68.00
2018-03-26T00:27:43.629Z,68.10
2018-03-26T00:30:12.692Z,68.80
2018-03-26T00:32:41.714Z,68.80
2018-03-26T00:35:10.793Z,68.10
2018-03-26T00:37:39.820Z,67.70
2018-03-26T00:40:08.841Z,67.30
2018-03-26T00:42:37.891Z,67.00
2018-03-26T00:45:06.937Z,67.20
2018-03-26T00:47:36.003Z,67.80
2018-03-26T00:50:05.826Z,67.20
2018-03-26T00:52:34.848Z,67.20
2018-03-26T00:55:03.911Z,66.90
2018-03-26T00:57:33.701Z,66.80
2018-03-26T01:00:02.758Z,66.80
2018-03-26T01:02:31.800Z,66.50
2018-03-26T01:05:01.585Z,66.60
2018-03-26T01:07:30.633Z,66.60
2018-03-26T01:09:59.685Z,66.70
2018-03-26T01:12:28.746Z,66.90
2018-03-26T01:14:57.768Z,67.10
2018-03-26T01:17:26.792Z,67.30
2018-03-26T01:19:56.630Z,68.10
2018-03-26T01:22:25.629Z,68.10
2018-03-26T01:24:54.674Z,68.70
2018-03-26T01:27:23.693Z,68.70
2018-03-26T01:29:52.742Z,68.80
2018-03-26T01:32:21.799Z,69.00
2018-03-26T01:34:50.822Z,68.90
2018-03-26T01:37:19.868Z,68.70
2018-03-26T01:39:48.926Z,68.70
2018-03-26T01:42:17.948Z,69.00
2018-03-26T01:44:46.976Z,69.10
2018-03-26T01:47:16.026Z,69.70
2018-03-26T01:49:45.817Z,69.70
2018-03-26T01:52:14.872Z,69.70
2018-03-26T01:54:43.929Z,70.00
2018-03-26T01:57:13.732Z,70.10
2018-03-26T01:59:43.548Z,70.00
2018-03-26T02:02:13.337Z,69.90
2018-03-26T02:04:42.425Z,69.80
2018-03-26T02:07:11.444Z,70.00
2018-03-26T02:09:41.245Z,69.90
2018-03-26T02:12:10.306Z,69.80
2018-03-26T02:14:39.374Z,70.20
2018-03-26T02:17:08.405Z,70.20
2018-03-26T02:19:37.450Z,70.40
2018-03-26T02:22:06.477Z,70.20
2018-03-26T02:24:35.538Z,70.40
2018-03-26T02:27:04.571Z,70.40
2018-03-26T02:29:33.598Z,70.40
2018-03-26T02:32:02.646Z,70.40
2018-03-26T02:34:31.693Z,70.50
2018-03-26T02:37:01.500Z,71.20
2018-03-26T02:39:30.553Z,71.30
2018-03-26T02:41:59.612Z,71.70
2018-03-26T02:44:29.406Z,71.50
2018-03-26T02:46:58.444Z,71.50
2018-03-26T02:49:27.810Z,70.20
2018-03-26T02:51:57.617Z,70.60
2018-03-26T02:54:27.414Z,70.90
2018-03-26T02:56:56.468Z,70.90
2018-03-26T02:59:25.511Z,71.50
2018-03-26T03:01:54.526Z,71.50
2018-03-26T03:04:23.577Z,72.20
2018-03-26T03:06:52.625Z,71.00
2018-03-26T03:09:21.673Z,70.90
2018-03-26T03:11:50.698Z,71.00
2018-03-26T03:14:19.760Z,71.40
2018-03-26T03:16:48.782Z,71.30
2018-03-26T03:19:18.596Z,70.80
2018-03-26T03:21:47.629Z,70.80
2018-03-26T03:24:16.676Z,70.80
2018-03-26T03:26:46.464Z,71.00
2018-03-26T03:29:15.536Z,71.00
2018-03-26T03:31:44.562Z,71.40
2018-03-26T03:34:13.585Z,71.30
2018-03-26T03:36:42.637Z,71.40
2018-03-26T03:39:11.669Z,71.90
2018-03-26T03:41:41.486Z,72.60
2018-03-26T03:44:10.509Z,72.60
2018-03-26T03:46:39.559Z,72.60
2018-03-26T03:49:09.375Z,72.00
2018-03-26T03:51:38.461Z,72.10
2018-03-26T03:54:08.241Z,72.10
2018-03-26T03:56:37.292Z,72.00
2018-03-26T03:59:06.358Z,72.10
2018-03-26T04:01:35.393Z,72.10
2018-03-26T04:04:04.446Z,72.60
2018-03-26T04:06:34.262Z,71.80
2018-03-26T04:09:04.057Z,72.20
2018-03-26T04:11:33.105Z,72.20
2018-03-26T04:14:02.133Z,71.90
2018-03-26T04:16:31.191Z,71.60
2018-03-26T04:19:00.250Z,71.40
2018-03-26T04:21:30.040Z,72.20
2018-03-26T04:23:59.094Z,72.20
2018-03-26T04:26:28.168Z,71.80
2018-03-26T04:28:57.188Z,71.90
2018-03-26T04:31:26.241Z,71.80
2018-03-26T04:33:56.074Z,72.30
2018-03-26T04:36:25.092Z,72.30
2018-03-26T04:38:54.140Z,72.00
2018-03-26T04:41:23.930Z,72.20
2018-03-26T04:43:52.973Z,72.20
2018-03-26T04:46:22.000Z,72.60
2018-03-26T04:48:51.055Z,72.60
2018-03-26T04:51:20.075Z,72.80
2018-03-26T04:53:49.236Z,73.00
2018-03-26T04:56:18.269Z,73.10
2018-03-26T04:58:47.427Z,73.50
2018-03-26T05:01:16.509Z,73.70
2018-03-26T05:03:46.302Z,72.00
2018-03-26T05:06:15.337Z,72.10
2018-03-26T05:08:44.382Z,71.90
2018-03-26T05:11:13.413Z,72.10
2018-03-26T05:13:42.438Z,72.20
2018-03-26T05:16:11.497Z,72.20
2018-03-26T05:18:40.529Z,72.00
2018-03-26T05:21:09.548Z,72.10
2018-03-26T05:23:38.609Z,72.20
2018-03-26T05:26:07.634Z,71.90
2018-03-26T05:28:36.664Z,71.90
2018-03-26T05:31:06.522Z,71.80
2018-03-26T05:33:35.497Z,71.80
2018-03-26T05:36:04.546Z,71.80
2018-03-26T05:38:34.705Z,72.00
2018-03-26T05:41:03.730Z,71.90
2018-03-26T05:43:32.756Z,72.20
2018-03-26T05:46:02.564Z,73.10
2018-03-26T05:48:32.361Z,72.90
2018-03-26T05:51:01.383Z,72.90
2018-03-26T05:53:31.182Z,72.30
2018-03-26T05:56:00.979Z,72.00
2018-03-26T05:58:30.000Z,72.00
2018-03-26T06:00:59.280Z,71.70
2018-03-26T06:03:29.105Z,72.20
2018-03-26T06:05:58.899Z,71.50
2018-03-26T06:08:27.921Z,71.60
2018-03-26T06:10:56.984Z,71.00
2018-03-26T06:13:26.009Z,70.60
2018-03-26T06:15:55.811Z,71.20
2018-03-26T06:18:25.638Z,71.40
2018-03-26T06:20:54.657Z,71.30
2018-03-26T06:23:23.690Z,71.50
2018-03-26T06:25:52.753Z,71.80
2018-03-26T06:28:21.773Z,71.80
2018-03-26T06:30:50.805Z,71.50
2018-03-26T06:33:19.862Z,71.60
2018-03-26T06:35:48.921Z,71.50
2018-03-26T06:38:38.497Z,70.80
2018-03-26T06:41:07.525Z,70.60
2018-03-26T06:43:36.553Z,70.70
2018-03-26T06:46:05.626Z,71.20
2018-03-26T06:48:35.426Z,70.70
2018-03-26T06:51:04.470Z,70.70
2018-03-26T06:53:33.537Z,71.00
2018-03-26T06:56:03.337Z,70.20
2018-03-26T06:58:32.365Z,70.20
2018-03-26T07:01:01.663Z,70.00
2018-03-26T07:03:30.702Z,69.90
2018-03-26T07:05:59.744Z,69.20
2018-03-26T07:08:28.802Z,68.00
2018-03-26T07:10:57.830Z,67.90
2018-03-26T07:13:26.858Z,67.60
2018-03-26T07:15:55.916Z,67.50
2018-03-26T07:18:24.952Z,67.80
2018-03-26T07:20:53.976Z,67.10
2018-03-26T07:23:23.052Z,67.00
2018-03-26T07:25:52.099Z,66.10
2018-03-26T07:28:21.132Z,65.60
2018-03-26T07:30:50.215Z,65.10
2018-03-26T07:33:19.242Z,64.90
2018-03-26T07:35:48.318Z,64.60
2018-03-26T07:38:17.358Z,63.80
2018-03-26T07:40:46.390Z,64.00
2018-03-26T07:43:15.427Z,63.60
2018-03-26T07:45:45.265Z,63.70
2018-03-26T07:48:14.285Z,62.90
2018-03-26T07:50:43.319Z,62.90
2018-03-26T07:53:12.479Z,62.80
2018-03-26T07:55:41.503Z,63.20
2018-03-26T07:58:10.538Z,63.50
2018-03-26T08:00:39.697Z,63.20
2018-03-26T08:03:08.725Z,63.30
2018-03-26T08:05:37.753Z,63.10
2018-03-26T08:08:06.829Z,62.60
2018-03-26T08:10:35.870Z,61.20
2018-03-26T08:13:04.902Z,60.90
2018-03-26T08:15:34.010Z,60.30
2018-03-26T08:18:03.046Z,60.50
2018-03-26T08:20:32.089Z,60.30
2018-03-26T08:23:01.200Z,60.50
2018-03-26T08:25:30.175Z,59.30
2018-03-26T08:27:59.204Z,58.10
2018-03-26T08:30:28.375Z,57.80
2018-03-26T08:32:57.410Z,56.70
2018-03-26T08:35:26.447Z,56.10
2018-03-26T08:37:55.501Z,56.30
2018-03-26T08:40:24.527Z,55.70
2018-03-26T08:42:54.360Z,54.90
2018-03-26T08:45:24.163Z,54.70
2018-03-26T08:47:53.188Z,54.70
2018-03-26T08:50:22.325Z,53.60
2018-03-26T08:52:51.268Z,53.80
2018-03-26T08:55:20.332Z,54.30
2018-03-26T08:57:50.106Z,54.30
2018-03-26T09:00:19.174Z,54.30
2018-03-26T09:02:48.204Z,54.50
2018-03-26T09:05:17.276Z,54.40
2018-03-26T09:07:46.302Z,54.70
2018-03-26T09:10:16.085Z,54.30
2018-03-26T09:12:45.149Z,54.30
2018-03-26T09:15:14.174Z,54.30
2018-03-26T09:17:43.229Z,53.90
2018-03-26T09:20:12.298Z,53.00
2018-03-26T09:22:42.091Z,52.90
2018-03-26T09:25:11.149Z,52.90
2018-03-26T09:27:40.171Z,53.20
2018-03-26T09:30:09.256Z,53.80
2018-03-26T09:32:38.261Z,53.00
2018-03-26T09:35:07.281Z,52.70
2018-03-26T09:37:37.093Z,52.70
2018-03-26T09:40:06.909Z,52.30
2018-03-26T09:42:35.947Z,52.30
2018-03-26T09:45:04.992Z,52.40
2018-03-26T09:47:34.023Z,51.80
2018-03-26T09:50:03.070Z,52.10
2018-03-26T09:52:32.098Z,52.10
2018-03-26T09:55:01.242Z,52.20
2018-03-26T09:57:30.270Z,52.60
2018-03-26T09:59:59.289Z,52.50
2018-03-26T10:02:28.354Z,52.50
2018-03-26T10:04:58.165Z,52.30
2018-03-26T10:07:27.952Z,52.30
2018-03-26T10:09:57.004Z,52.30
2018-03-26T10:12:26.035Z,51.60
2018-03-26T10:14:55.093Z,51.20
2018-03-26T10:17:24.146Z,50.80
2018-03-26T10:19:53.937Z,49.80
2018-03-26T10:22:22.992Z,49.80
2018-03-26T10:24:52.050Z,49.30
2018-03-26T10:27:21.847Z,49.80
2018-03-26T10:29:50.892Z,49.80
2018-03-26T10:32:19.949Z,50.10
2018-03-26T10:34:49.743Z,50.10
2018-03-26T10:37:19.573Z,50.70
2018-03-26T10:39:50.265Z,50.60
2018-03-26T10:42:19.300Z,50.60
2018-03-26T10:44:49.121Z,49.70
2018-03-26T10:47:18.906Z,49.60
2018-03-26T10:49:48.726Z,50.00
2018-03-26T10:52:18.521Z,50.50
2018-03-26T10:54:47.590Z,50.50
2018-03-26T10:57:16.645Z,49.90
2018-03-26T10:59:45.677Z,50.00
2018-03-26T11:02:14.730Z,50.40
2018-03-26T11:04:43.751Z,50.40
2018-03-26T11:07:15.472Z,50.50
2018-03-26T11:09:45.773Z,50.70
2018-03-26T11:12:14.835Z,50.10
2018-03-26T11:14:43.858Z,49.00
2018-03-26T11:17:13.054Z,48.10
2018-03-26T11:19:42.120Z,47.70
2018-03-26T11:22:11.201Z,47.20
2018-03-26T11:24:40.307Z,46.40
2018-03-26T11:27:09.447Z,47.10
2018-03-26T11:29:39.245Z,45.80
2018-03-26T11:32:08.285Z,46.00
2018-03-26T11:34:37.355Z,49.10
2018-03-26T11:37:07.159Z,46.60
2018-03-26T11:39:36.969Z,44.90
2018-03-26T11:42:06.813Z,44.20
2018-03-26T11:44:35.847Z,44.20
2018-03-26T11:47:05.010Z,44.30
2018-03-26T11:49:34.072Z,44.80
2018-03-26T11:52:03.076Z,45.70
2018-03-26T11:54:32.926Z,45.50
2018-03-26T11:57:01.963Z,45.50
2018-03-26T11:59:31.002Z,46.40
2018-03-26T12:02:00.059Z,46.30
2018-03-26T12:04:29.866Z,46.80
2018-03-26T12:06:58.901Z,46.80
2018-03-26T12:09:28.067Z,45.60
2018-03-26T12:11:57.861Z,46.50
2018-03-26T12:14:26.885Z,46.50
2018-03-26T12:16:55.954Z,46.70
2018-03-26T12:19:25.816Z,46.90
2018-03-26T12:21:54.857Z,46.30
2018-03-26T12:24:41.726Z,46.40
2018-03-26T12:27:10.749Z,46.20
2018-03-26T12:29:57.562Z,46.10
2018-03-26T12:32:26.671Z,46.20
2018-03-26T12:35:13.562Z,46.30
2018-03-26T12:37:42.592Z,46.40
2018-03-26T12:40:30.018Z,45.40
2018-03-26T12:42:59.812Z,45.40
2018-03-26T12:45:47.714Z,46.10
2018-03-26T12:48:17.006Z,45.40
2018-03-26T12:51:04.175Z,45.70
2018-03-26T12:53:34.993Z,46.00
2018-03-26T12:56:04.357Z,46.00
2018-03-26T12:58:52.457Z,45.90
2018-03-26T13:01:39.622Z,46.00
2018-03-26T13:04:08.923Z,46.10
2018-03-26T13:06:38.202Z,47.30
2018-03-26T13:09:08.322Z,47.40
2018-03-26T13:11:38.378Z,48.50
2018-03-26T13:14:07.670Z,47.90
2018-03-26T13:16:37.026Z,48.00
2018-03-26T13:19:06.316Z,47.60
2018-03-26T13:21:35.660Z,47.60
2018-03-26T13:24:04.975Z,47.00
2018-03-26T13:26:34.329Z,46.60
2018-03-26T13:29:04.421Z,47.30
2018-03-26T13:31:33.756Z,47.30
2018-03-26T13:34:03.871Z,46.80
2018-03-26T13:36:33.239Z,46.70
2018-03-26T13:39:02.557Z,46.60
2018-03-26T13:41:31.845Z,46.40
2018-03-26T13:44:01.167Z,47.30
2018-03-26T13:46:30.476Z,47.00
2018-03-26T13:49:00.546Z,47.20
2018-03-26T13:51:29.861Z,47.10
2018-03-26T13:53:59.214Z,47.40
2018-03-26T13:56:28.475Z,47.50
2018-03-26T13:58:57.769Z,47.60
2018-03-26T14:01:27.101Z,47.90
2018-03-26T14:03:57.182Z,48.10
2018-03-26T14:06:26.564Z,48.10
2018-03-26T14:09:13.724Z,47.80
2018-03-26T14:12:00.976Z,48.10
2018-03-26T14:14:48.087Z,47.80
2018-03-26T14:17:34.849Z,48.30
2018-03-26T14:20:04.186Z,47.40
2018-03-26T14:22:34.237Z,47.30
2018-03-26T14:25:03.586Z,47.30
2018-03-26T14:27:32.896Z,47.30
2018-03-26T14:30:03.004Z,48.00
2018-03-26T14:32:33.301Z,47.90
2018-03-26T14:48:39.471Z,48.70
2018-03-26T14:51:08.792Z,48.90
2018-03-26T14:53:38.848Z,49.00
2018-03-26T14:56:08.204Z,49.00
2018-03-26T14:58:37.506Z,49.20
2018-03-26T15:01:07.649Z,48.60
2018-03-26T15:03:37.121Z,48.60
2018-03-26T15:06:06.428Z,48.60
2018-03-26T15:08:36.503Z,49.40
2018-03-26T15:11:05.800Z,49.10
2018-03-26T15:13:35.078Z,48.80
2018-03-26T15:16:04.508Z,49.30
2018-03-26T15:18:34.007Z,49.40
2018-03-26T15:21:03.283Z,49.70
2018-03-26T15:23:32.598Z,49.70
2018-03-26T15:26:01.927Z,50.20
2018-03-26T15:28:31.353Z,50.20
2018-03-26T15:31:01.422Z,50.30
2018-03-26T15:33:30.707Z,50.10
2018-03-26T15:36:00.055Z,50.00
2018-03-26T15:38:29.371Z,50.20
2018-03-26T15:40:58.679Z,50.60
2018-03-26T15:43:28.776Z,50.50
2018-03-26T15:45:58.073Z,50.50
2018-03-26T15:48:27.371Z,50.60
2018-03-26T15:50:56.728Z,50.50
2018-03-26T15:53:26.035Z,50.60
2018-03-26T15:55:55.350Z,50.70
2018-03-26T15:58:24.776Z,50.90
2018-03-26T16:00:54.065Z,50.80
2018-03-26T16:03:30.846Z,51.10
2018-03-26T16:06:01.841Z,51.60
2018-03-26T16:08:31.141Z,52.00
2018-03-26T16:11:00.482Z,51.60
2018-03-26T16:13:30.631Z,51.80
2018-03-26T16:15:59.941Z,51.80
2018-03-26T16:18:30.489Z,52.20
2018-03-26T16:20:59.849Z,52.20
2018-03-26T16:23:29.144Z,52.20
2018-03-26T16:25:58.470Z,52.10
2018-03-26T16:28:28.577Z,52.00
2018-03-26T16:30:57.925Z,52.00
2018-03-26T16:33:28.850Z,52.30
2018-03-26T16:35:58.178Z,51.90
2018-03-26T16:38:27.519Z,52.30
2018-03-26T16:40:56.877Z,52.40
2018-03-26T16:43:26.189Z,52.40
2018-03-26T16:45:55.563Z,52.40
2018-03-26T16:48:24.909Z,52.60
2018-03-26T16:50:54.805Z,52.50
2018-03-26T16:53:24.145Z,52.40
2018-03-26T16:55:54.241Z,53.00
2018-03-26T16:58:23.574Z,53.00
2018-03-26T17:00:53.684Z,53.00
2018-03-26T17:03:23.827Z,53.30
2018-03-26T17:05:53.172Z,53.30
2018-03-26T17:08:22.527Z,53.30
2018-03-26T17:10:51.970Z,53.50
2018-03-26T17:13:21.263Z,53.40
2018-03-26T17:15:50.616Z,53.60
2018-03-26T17:18:20.710Z,53.50
2018-03-26T17:20:50.072Z,53.50
2018-03-26T17:23:19.416Z,53.30
2018-03-26T17:25:48.771Z,53.40
2018-03-26T17:28:18.121Z,53.20
2018-03-26T17:30:48.097Z,53.00
2018-03-26T17:33:17.459Z,53.00
2018-03-26T17:35:47.551Z,54.60
2018-03-26T17:38:16.889Z,54.60
2018-03-26T17:40:46.216Z,54.10
2018-03-26T17:43:15.571Z,53.90
2018-03-26T17:45:45.686Z,54.40
2018-03-26T17:48:16.776Z,54.70
2018-03-26T17:50:46.147Z,54.10
2018-03-26T17:53:15.494Z,54.30
2018-03-26T17:55:44.867Z,55.30
2018-03-26T17:58:14.244Z,56.00
2018-03-26T18:00:44.364Z,56.00
2018-03-26T18:03:14.500Z,55.80
2018-03-26T18:05:43.831Z,55.80
2018-03-26T18:08:13.153Z,55.90
2018-03-26T18:10:42.526Z,56.20
2018-03-26T18:13:11.874Z,56.70
2018-03-26T18:15:41.224Z,57.00
2018-03-26T18:18:10.590Z,57.30
2018-03-26T18:20:40.723Z,57.50
2018-03-26T18:23:10.063Z,57.50
2018-03-26T18:25:39.416Z,57.40
2018-03-26T18:28:09.505Z,57.70
2018-03-26T18:30:38.865Z,57.70
2018-03-26T18:33:08.191Z,57.50
2018-03-26T18:35:37.545Z,58.20
2018-03-26T18:38:06.941Z,58.00
2018-03-26T18:40:36.294Z,58.00
2018-03-26T18:43:05.626Z,58.30
2018-03-26T18:45:36.841Z,59.10
2018-03-26T18:48:06.216Z,59.10
2018-03-26T18:50:35.556Z,59.20
2018-03-26T18:53:05.752Z,59.50
2018-03-26T18:55:35.126Z,59.80
2018-03-26T18:58:04.451Z,59.80
2018-03-26T19:00:33.884Z,60.00
2018-03-26T19:03:03.250Z,59.80
2018-03-26T19:05:32.604Z,60.80
2018-03-26T19:08:02.736Z,60.10
2018-03-26T19:10:32.885Z,60.30
2018-03-26T19:13:03.152Z,60.30
2018-03-26T19:15:33.404Z,61.00
2018-03-26T19:18:03.538Z,62.50
2018-03-26T19:20:32.904Z,61.80
2018-03-26T19:23:02.242Z,62.30
2018-03-26T19:25:31.616Z,61.80
2018-03-26T19:28:01.716Z,60.90
2018-03-26T19:30:31.093Z,60.90
2018-03-26T19:33:01.329Z,61.00
2018-03-26T19:35:31.663Z,60.50
2018-03-26T19:38:00.995Z,60.80
2018-03-26T19:40:31.269Z,60.80
2018-03-26T19:43:01.264Z,60.60
2018-03-26T19:45:30.637Z,61.00
2018-03-26T19:47:59.987Z,61.30
2018-03-26T19:50:29.317Z,61.00
2018-03-26T19:52:58.675Z,61.00
2018-03-26T19:55:27.999Z,60.50
2018-03-26T19:57:57.334Z,60.40
2018-03-26T20:00:27.496Z,61.10
2018-03-26T20:02:57.832Z,61.00
2018-03-26T20:05:28.328Z,61.40
2018-03-26T20:07:58.748Z,61.60
2018-03-26T20:10:28.109Z,61.30
2018-03-26T20:12:57.446Z,61.80
2018-03-26T20:15:26.782Z,61.40
2018-03-26T20:17:56.807Z,61.70
2018-03-26T20:20:26.134Z,61.40
2018-03-26T20:22:55.497Z,61.70
2018-03-26T20:25:24.820Z,62.50
2018-03-26T20:27:54.133Z,62.20
2018-03-26T20:30:23.494Z,62.40
2018-03-26T20:32:53.435Z,62.00
2018-03-26T20:35:22.762Z,62.50
2018-03-26T20:37:52.154Z,62.80
2018-03-26T20:40:21.500Z,62.50
2018-03-26T20:42:50.813Z,62.90
2018-03-26T20:45:20.928Z,63.00
2018-03-26T20:47:50.244Z,62.70
2018-03-26T20:50:19.603Z,62.90
2018-03-26T20:52:48.980Z,63.00
2018-03-26T20:55:19.090Z,63.60
2018-03-26T20:57:48.415Z,63.40
2018-03-26T21:00:18.527Z,63.40
2018-03-26T21:02:47.848Z,63.50
2018-03-26T21:05:17.175Z,63.10
2018-03-26T21:07:46.507Z,63.40
2018-03-26T21:10:15.801Z,63.60
2018-03-26T21:12:45.105Z,63.40
2018-03-26T21:15:14.385Z,63.40
2018-03-26T21:17:43.720Z,63.60
2018-03-26T21:20:13.041Z,64.40
2018-03-26T21:22:42.340Z,64.40
2018-03-26T21:25:11.668Z,64.40
2018-03-26T21:27:40.996Z,64.40
2018-03-26T21:30:10.244Z,63.90
2018-03-26T21:32:39.384Z,63.90
2018-03-26T21:35:08.393Z,63.90
2018-03-26T21:37:38.214Z,64.20
2018-03-26T21:40:08.037Z,64.40
2018-03-26T21:42:37.059Z,64.30
2018-03-26T21:45:06.167Z,64.70
2018-03-26T21:47:35.905Z,64.20
2018-03-26T21:50:04.969Z,64.00
2018-03-26T21:52:34.821Z,65.20
2018-03-26T21:55:03.885Z,64.50
2018-03-26T21:57:32.930Z,64.10
2018-03-26T22:00:01.998Z,64.30
2018-03-26T22:02:31.076Z,64.30
2018-03-26T22:05:00.083Z,64.70
2018-03-26T22:07:29.181Z,65.20
2018-03-26T22:09:58.222Z,65.00
2018-03-26T22:12:27.257Z,64.70
2018-03-26T22:14:56.301Z,64.60
2018-03-26T22:17:25.344Z,64.40
2018-03-26T22:19:54.505Z,64.70
2018-03-26T22:22:23.557Z,64.70
2018-03-26T22:24:53.361Z,64.10
2018-03-26T22:27:22.399Z,64.40
2018-03-26T22:29:51.578Z,64.20
2018-03-26T22:32:21.388Z,64.50
2018-03-26T22:34:50.423Z,64.50
2018-03-26T22:37:19.478Z,65.00
2018-03-26T22:39:48.505Z,64.90
2018-03-26T22:42:17.533Z,64.60
2018-03-26T22:44:46.607Z,64.40
2018-03-26T22:47:15.630Z,64.50
2018-03-26T22:49:45.454Z,64.60
2018-03-26T22:52:15.258Z,64.50
2018-03-26T22:54:44.317Z,64.50
2018-03-26T22:57:13.393Z,64.50
2018-03-26T22:59:42.422Z,64.50
2018-03-26T23:02:11.509Z,64.40
2018-03-26T23:04:40.537Z,64.70
2018-03-26T23:07:10.369Z,65.80
2018-03-26T23:09:39.396Z,65.00
2018-03-26T23:12:08.422Z,64.90
2018-03-26T23:14:37.479Z,65.20
2018-03-26T23:17:06.532Z,64.40
2018-03-26T23:19:35.564Z,65.10
2018-03-26T23:22:04.617Z,65.30
2018-03-26T23:24:33.678Z,65.40
2018-03-26T23:27:02.730Z,65.50
2018-03-26T23:29:31.767Z,65.90
2018-03-26T23:32:00.798Z,66.20
2018-03-26T23:34:29.844Z,65.80
2018-03-26T23:36:58.870Z,65.90
2018-03-26T23:39:27.925Z,65.70
2018-03-26T23:41:56.953Z,65.50
2018-03-26T23:44:26.785Z,65.70
2018-03-26T23:46:55.821Z,65.70
2018-03-26T23:49:24.848Z,65.80
2018-03-26T23:51:53.904Z,65.90
2018-03-26T23:54:22.957Z,66.00
2018-03-26T23:56:51.983Z,65.90
2018-03-26T23:59:21.041Z,66.00
